Rawdon, Canada
Current Conditions -  °F | °C
As of 8:00 PM on Friday 24 Oct 2014 (Local Time) from CYMX Reporting Station
Scattered Clouds Scattered Clouds  
Wind Chill: 50°   Ceiling: Unl
Heat Index: 50°   Visibility: 25mi
Dew Point: 41°   Wind: 5mph
Humidity: 71%   Direction: 220°SW
Pressure: 29.83"   Gusts: NA
Location:  46.03°N, 73.7°W
Report Text: CYMX 250000Z 22004KT 25SM SCT110 10/05 A2983 RMK AC4 SLP104
Loading
Personal Weather Stations






























Interactive Weather Map
Tropical Storm Tracking
New forecast layout! Learn more

10-Day Weather Forecast

Advertisements
Track Severe Weather on mobile